createdAt,value
2019-02-20T00:01:56.184Z,7.20
2019-02-20T00:04:23.661Z,7.10
2019-02-20T00:06:53.105Z,7.10
2019-02-20T00:09:20.501Z,7.10
2019-02-20T00:11:48.189Z,7.10
2019-02-20T00:14:15.746Z,7.10
2019-02-20T00:16:43.315Z,7.10
2019-02-20T00:19:10.804Z,7.10
2019-02-20T00:21:38.285Z,7.10
2019-02-20T00:24:05.906Z,7.10
2019-02-20T00:26:34.509Z,7.10
2019-02-20T00:29:02.201Z,7.00
2019-02-20T00:31:29.729Z,7.00
2019-02-20T00:33:57.110Z,7.00
2019-02-20T00:36:24.733Z,7.00
2019-02-20T00:38:52.326Z,7.00
2019-02-20T00:41:19.933Z,7.00
2019-02-20T00:44:02.056Z,7.00
2019-02-20T00:46:38.257Z,7.00
2019-02-20T00:49:25.566Z,7.00
2019-02-20T00:51:59.935Z,7.00
2019-02-20T00:54:27.338Z,6.90
2019-02-20T00:56:54.959Z,6.90
2019-02-20T00:59:22.483Z,6.90
2019-02-20T01:01:50.021Z,6.70
2019-02-20T01:04:17.524Z,6.50
2019-02-20T01:06:45.398Z,6.30
2019-02-20T01:09:12.896Z,6.10
2019-02-20T01:11:40.917Z,5.90
2019-02-20T01:14:08.631Z,5.80
2019-02-20T01:16:36.239Z,5.70
2019-02-20T01:19:03.820Z,5.60
2019-02-20T01:24:34.533Z,5.30
2019-02-20T01:27:02.263Z,5.10
2019-02-20T01:29:29.746Z,5.00
2019-02-20T01:31:57.316Z,4.90
2019-02-20T01:34:24.983Z,4.80
2019-02-20T01:36:52.673Z,4.70
2019-02-20T01:39:20.096Z,4.70
2019-02-20T01:41:47.990Z,4.60
2019-02-20T01:44:18.388Z,4.50
2019-02-20T01:46:46.079Z,4.50
2019-02-20T01:49:13.538Z,4.40
2019-02-20T01:51:42.231Z,4.30
2019-02-20T01:54:10.025Z,4.30
2019-02-20T01:56:37.707Z,4.10
2019-02-20T01:59:05.376Z,4.10
2019-02-20T02:01:32.999Z,4.20
2019-02-20T02:04:00.552Z,4.20
2019-02-20T02:06:29.934Z,4.30
2019-02-20T02:08:59.697Z,4.30
2019-02-20T02:11:27.274Z,4.40
2019-02-20T02:13:55.063Z,4.30
2019-02-20T02:16:22.850Z,4.30
2019-02-20T02:18:50.565Z,4.20
2019-02-20T02:21:18.357Z,4.10
2019-02-20T02:23:47.631Z,4.00
2019-02-20T02:26:16.724Z,3.90
2019-02-20T02:28:44.419Z,3.80
2019-02-20T02:31:11.809Z,3.70
2019-02-20T02:33:39.196Z,3.60
2019-02-20T02:36:06.854Z,3.50
2019-02-20T02:38:34.385Z,3.40
2019-02-20T02:41:01.858Z,3.40
2019-02-20T02:43:30.385Z,3.30
2019-02-20T02:45:58.549Z,3.30
2019-02-20T02:48:25.962Z,3.30
2019-02-20T02:50:53.450Z,3.30
2019-02-20T02:53:30.346Z,3.30
2019-02-20T02:55:51.144Z,3.40
2019-02-20T02:58:18.846Z,3.50
2019-02-20T03:00:46.342Z,3.70
2019-02-20T03:03:13.821Z,3.80
2019-02-20T03:05:41.933Z,3.90
2019-02-20T03:08:09.906Z,4.00
2019-02-20T03:10:37.301Z,4.10
2019-02-20T03:13:05.094Z,4.20
2019-02-20T03:15:32.550Z,4.30
2019-02-20T03:18:00.087Z,4.40
2019-02-20T03:20:28.728Z,4.40
2019-02-20T03:22:56.261Z,4.40
2019-02-20T03:25:23.806Z,4.40
2019-02-20T03:27:51.195Z,4.50
2019-02-20T03:30:18.925Z,4.50
2019-02-20T03:32:46.341Z,4.60
2019-02-20T03:35:14.769Z,4.60
2019-02-20T03:37:43.209Z,4.60
2019-02-20T03:40:10.792Z,4.70
2019-02-20T03:42:38.533Z,4.70
2019-02-20T03:45:07.454Z,4.80
2019-02-20T03:47:35.040Z,4.80
2019-02-20T03:50:02.752Z,4.80
2019-02-20T03:52:32.193Z,4.90
2019-02-20T03:54:59.864Z,4.90
2019-02-20T03:57:27.359Z,4.90
2019-02-20T03:59:55.022Z,5.00
2019-02-20T04:02:23.588Z,5.00
2019-02-20T04:04:51.241Z,5.10
2019-02-20T04:07:18.798Z,5.10
2019-02-20T04:09:46.206Z,5.20
2019-02-20T04:12:14.007Z,5.20
2019-02-20T04:14:42.633Z,5.20
2019-02-20T04:17:10.266Z,5.30
2019-02-20T04:19:37.967Z,5.30
2019-02-20T04:22:05.831Z,5.30
2019-02-20T04:24:33.358Z,5.40
2019-02-20T04:27:01.278Z,5.40
2019-02-20T04:29:28.787Z,5.50
2019-02-20T04:31:56.388Z,5.50
2019-02-20T04:34:23.753Z,5.60
2019-02-20T04:36:51.356Z,5.70
2019-02-20T04:39:18.913Z,5.70
2019-02-20T04:41:46.656Z,5.70
2019-02-20T04:44:14.695Z,5.80
2019-02-20T04:46:42.305Z,5.90
2019-02-20T04:49:09.916Z,6.00
2019-02-20T04:51:37.585Z,6.00
2019-02-20T04:54:13.028Z,6.00
2019-02-20T04:56:34.591Z,6.10
2019-02-20T04:59:02.361Z,6.10
2019-02-20T05:01:30.078Z,6.20
2019-02-20T05:03:57.631Z,6.20
2019-02-20T05:06:25.117Z,6.20
2019-02-20T05:08:52.569Z,6.20
2019-02-20T05:11:20.385Z,6.20
2019-02-20T05:13:47.861Z,6.20
2019-02-20T05:16:15.675Z,6.20
2019-02-20T05:18:43.338Z,6.20
2019-02-20T05:21:10.875Z,6.20
2019-02-20T05:23:38.348Z,6.20
2019-02-20T05:26:06.017Z,6.30
2019-02-20T05:28:34.660Z,6.20
2019-02-20T05:31:02.117Z,6.30
2019-02-20T05:33:29.816Z,6.20
2019-02-20T05:35:57.546Z,6.30
2019-02-20T05:38:25.246Z,6.30
2019-02-20T05:40:53.760Z,6.20
2019-02-20T05:43:21.409Z,6.20
2019-02-20T05:45:48.977Z,6.20
2019-02-20T05:48:16.600Z,6.30
2019-02-20T05:50:45.127Z,6.30
2019-02-20T05:53:12.918Z,6.30
2019-02-20T05:55:40.554Z,6.30
2019-02-20T05:58:08.473Z,6.30
2019-02-20T06:00:36.487Z,6.30
2019-02-20T06:03:05.014Z,6.20
2019-02-20T06:05:32.653Z,6.30
2019-02-20T06:08:01.203Z,6.30
2019-02-20T06:10:28.977Z,6.30
2019-02-20T06:13:16.026Z,6.30
2019-02-20T06:15:44.015Z,6.30
2019-02-20T06:18:12.426Z,6.30
2019-02-20T06:20:39.778Z,6.30
2019-02-20T06:23:07.374Z,6.30
2019-02-20T06:25:34.933Z,6.30
2019-02-20T06:28:02.572Z,6.30
2019-02-20T15:47:41.205Z,7.40
2019-02-20T15:50:10.062Z,7.20
2019-02-20T15:52:39.711Z,7.20
2019-02-20T15:55:07.767Z,7.30
2019-02-20T15:57:38.080Z,7.30
2019-02-20T16:00:07.374Z,7.40
2019-02-20T16:02:35.747Z,7.40
2019-02-20T16:05:08.078Z,7.50
2019-02-20T16:07:35.699Z,7.50
2019-02-20T16:10:05.479Z,7.50
2019-02-20T16:12:32.950Z,7.60
2019-02-20T16:15:00.536Z,7.50
2019-02-20T16:17:28.021Z,7.40
2019-02-20T16:19:55.849Z,7.30
2019-02-20T16:22:23.578Z,7.20
2019-02-20T16:24:51.613Z,7.10
2019-02-20T16:27:19.690Z,6.90
2019-02-20T16:29:47.246Z,6.80
2019-02-20T16:32:18.607Z,6.70
2019-02-20T16:34:46.362Z,6.60
2019-02-20T16:37:14.060Z,6.50
2019-02-20T16:39:42.003Z,6.50
2019-02-20T16:42:10.026Z,6.40
2019-02-20T16:44:37.723Z,6.30
2019-02-20T16:47:05.330Z,6.20
2019-02-20T16:49:32.989Z,6.20
2019-02-20T16:52:00.948Z,6.20
2019-02-20T16:54:28.681Z,6.20
2019-02-20T16:56:56.573Z,6.40
2019-02-20T16:59:24.716Z,6.50
2019-02-20T17:01:53.130Z,6.60
2019-02-20T17:04:20.818Z,6.70
2019-02-20T17:06:48.217Z,6.80
2019-02-20T17:09:16.242Z,6.80
2019-02-20T17:11:43.995Z,6.80
2019-02-20T17:14:11.814Z,6.80
2019-02-20T17:16:39.746Z,6.80
2019-02-20T17:19:07.508Z,6.80
2019-02-20T17:21:36.169Z,6.80
2019-02-20T17:24:04.658Z,6.90
2019-02-20T17:26:32.715Z,6.90
2019-02-20T17:29:00.479Z,6.90
2019-02-20T17:31:28.410Z,6.90
2019-02-20T17:33:56.805Z,6.90
2019-02-20T17:36:24.520Z,6.90
2019-02-20T17:38:52.356Z,6.90
2019-02-20T17:41:20.123Z,6.90
2019-02-20T17:43:47.826Z,6.90
2019-02-20T17:46:15.575Z,6.90
2019-02-20T17:48:43.488Z,6.90
2019-02-20T17:51:12.328Z,6.90
2019-02-20T17:53:39.990Z,6.90
2019-02-20T17:56:08.343Z,6.90
2019-02-20T17:58:36.643Z,6.90
2019-02-20T18:01:10.551Z,6.90
2019-02-20T18:03:38.585Z,6.90
2019-02-20T18:06:06.230Z,6.90
2019-02-20T18:08:35.242Z,7.00
2019-02-20T18:11:04.450Z,6.90
2019-02-20T18:13:32.141Z,6.90
2019-02-20T18:15:59.865Z,6.90
2019-02-20T18:18:28.183Z,7.00
2019-02-20T18:20:56.044Z,6.90
2019-02-20T18:23:23.577Z,6.90
2019-02-20T18:25:52.335Z,6.90
2019-02-20T18:28:50.385Z,6.90
2019-02-20T18:31:19.977Z,6.90
2019-02-20T18:33:47.741Z,6.90
2019-02-20T18:36:15.504Z,6.90
2019-02-20T18:38:43.127Z,6.90
2019-02-20T18:41:15.605Z,6.90
2019-02-20T18:43:44.054Z,6.90
2019-02-20T18:46:12.460Z,6.90
2019-02-20T18:48:40.458Z,6.90
2019-02-20T18:51:09.943Z,6.90
2019-02-20T18:53:38.814Z,6.90
2019-02-20T18:56:07.108Z,6.90
2019-02-20T18:58:35.239Z,6.90
2019-02-20T19:01:43.971Z,6.90
2019-02-20T19:04:12.078Z,6.90
2019-02-20T19:06:41.376Z,6.90
2019-02-20T19:09:15.975Z,6.90
2019-02-20T19:12:44.138Z,6.90
2019-02-20T19:16:11.943Z,6.90
2019-02-20T19:19:46.361Z,6.90
2019-02-20T19:22:35.265Z,6.90
2019-02-20T19:25:37.742Z,6.90
2019-02-20T19:29:17.315Z,6.80
2019-02-20T19:32:26.464Z,6.80
2019-02-20T19:35:23.309Z,6.80
2019-02-20T19:38:53.729Z,6.80
2019-02-20T19:41:47.657Z,6.80
2019-02-20T19:45:32.022Z,6.80
2019-02-20T19:52:45.878Z,6.70
2019-02-20T19:56:15.140Z,6.70
2019-02-20T19:59:44.740Z,6.70
2019-02-20T20:03:01.929Z,6.70
2019-02-20T20:06:34.846Z,6.70
2019-02-20T20:09:51.564Z,6.70
2019-02-20T20:13:23.389Z,6.70
2019-02-20T20:16:34.661Z,6.70
2019-02-20T20:19:41.427Z,6.80
2019-02-20T20:23:23.238Z,6.60
2019-02-20T20:26:48.426Z,6.60
2019-02-20T20:30:27.784Z,6.60
2019-02-20T20:34:20.162Z,6.60
2019-02-20T20:37:39.378Z,6.50
2019-02-20T20:41:55.347Z,6.60
2019-02-20T20:53:59.173Z,6.50
2019-02-20T20:58:03.535Z,6.50
2019-02-20T21:06:24.035Z,6.50
2019-02-20T21:17:47.542Z,6.50
2019-02-20T21:25:21.001Z,6.50
2019-02-20T21:32:49.411Z,6.40
2019-02-20T21:36:35.758Z,6.40
2019-02-20T21:40:30.483Z,6.30
2019-02-20T21:43:52.822Z,6.30
2019-02-20T21:47:39.037Z,6.30
2019-02-20T21:59:07.654Z,6.20
2019-02-20T22:02:40.841Z,6.20
2019-02-20T22:14:22.481Z,6.10
2019-02-20T22:18:34.263Z,6.10
2019-02-20T22:30:47.356Z,6.00
2019-02-20T22:34:43.943Z,6.00
2019-02-20T22:38:30.314Z,6.00
2019-02-20T22:42:03.927Z,5.80
2019-02-20T22:45:54.120Z,5.60
2019-02-20T22:49:22.914Z,5.30
2019-02-20T22:56:43.468Z,5.30
2019-02-20T23:05:18.360Z,5.40
2019-02-20T23:44:41.439Z,5.70
2019-02-20T23:47:35.725Z,5.80
2019-02-20T23:50:16.298Z,5.90
2019-02-20T23:52:57.418Z,5.80
2019-02-20T23:55:57.227Z,5.80
2019-02-20T23:58:48.073Z,5.80
